Terminal Aerodrome Forecast
Issued by NWS

Home | Current Version | Previous Version | Text Only | Print | Product List | Glossary On
Versions: 1 2 3 4 5 6 7 8 9 10 11 12 13 14
000
FTUS45 KABQ 240300 AAA
TAFTCC
TAF AMD
KTCC 240309Z 2403/2424 21010G16KT P6SM FEW060 SCT150
     FM240500 22007KT P6SM FEW150
     FM241000 23007KT P6SM VCFG FEW015
     FM241500 21006KT P6SM FEW030
     FM242300 16010KT P6SM VCTS SCT060CB SCT150=

USA.gov is the U.S. government's official web portal to all federal, state and local government web resources and services.